createdAt,value
2023-03-01T00:01:39.875Z,14.10
2023-03-01T00:04:06.728Z,14.05
2023-03-01T00:06:33.948Z,13.10
2023-03-01T00:09:00.784Z,12.60
2023-03-01T00:11:30.697Z,12.85
2023-03-01T00:14:01.886Z,13.75
2023-03-01T00:16:42.132Z,13.43
2023-03-01T00:19:14.818Z,12.43
2023-03-01T00:21:42.012Z,11.38
2023-03-01T00:24:09.888Z,12.45
2023-03-01T00:26:36.736Z,12.55
2023-03-01T00:29:04.215Z,11.48
2023-03-01T00:31:33.382Z,11.07
2023-03-01T00:34:04.624Z,11.73
2023-03-01T00:36:36.578Z,11.93
2023-03-01T00:39:06.620Z,10.70
2023-03-01T00:41:35.523Z,13.70
2023-03-01T00:44:02.748Z,10.60
2023-03-01T00:46:31.600Z,10.23
2023-03-01T00:48:58.803Z,12.02
2023-03-01T00:51:28.583Z,12.68
2023-03-01T00:53:58.025Z,11.13
2023-03-01T00:56:25.316Z,11.07
2023-03-01T00:58:52.118Z,10.38
2023-03-01T01:01:31.842Z,10.98
2023-03-01T01:04:12.384Z,10.13
2023-03-01T01:06:47.624Z,11.05
2023-03-01T01:09:18.502Z,10.80
2023-03-01T01:11:51.696Z,9.23
2023-03-01T01:14:19.745Z,11.35
2023-03-01T01:16:46.808Z,10.50
2023-03-01T01:19:14.800Z,12.68
2023-03-01T01:21:44.102Z,11.55
2023-03-01T01:24:11.359Z,10.77
2023-03-01T01:26:38.545Z,11.20
2023-03-01T01:29:06.542Z,10.10
2023-03-01T01:31:35.309Z,8.43
2023-03-01T01:34:05.400Z,11.65
2023-03-01T01:36:33.397Z,10.82
2023-03-01T01:39:00.840Z,10.82
2023-03-01T01:41:30.236Z,10.52
2023-03-01T01:44:25.899Z,11.02
2023-03-01T01:47:09.065Z,10.82
2023-03-01T01:49:45.136Z,12.32
2023-03-01T01:52:28.326Z,10.52
2023-03-01T01:55:07.700Z,10.15
2023-03-01T01:57:42.815Z,10.60
2023-03-01T02:00:20.163Z,12.68
2023-03-01T02:02:52.880Z,11.07
2023-03-01T02:05:34.187Z,10.50
2023-03-01T02:08:01.786Z,12.00
2023-03-01T02:10:31.098Z,10.98
2023-03-01T02:12:58.929Z,11.07
2023-03-01T02:15:27.543Z,12.05
2023-03-01T02:17:55.740Z,9.95
2023-03-01T02:20:35.429Z,10.45
2023-03-01T02:23:02.291Z,9.93
2023-03-01T02:25:59.200Z,10.40
2023-03-01T02:28:27.538Z,9.45
2023-03-01T02:31:14.833Z,10.95
2023-03-01T02:33:43.210Z,9.32
2023-03-01T02:36:19.626Z,9.13
2023-03-01T02:38:48.805Z,10.35
2023-03-01T02:41:20.078Z,9.25
2023-03-01T02:43:47.325Z,9.43
2023-03-01T02:46:22.287Z,9.27
2023-03-01T02:48:55.765Z,11.52
2023-03-01T02:51:57.356Z,10.68
2023-03-01T02:54:34.615Z,9.70
2023-03-01T02:57:02.462Z,9.15
2023-03-01T02:59:40.119Z,10.80
2023-03-01T03:02:09.019Z,10.73
2023-03-01T03:04:35.846Z,10.68
2023-03-01T03:07:02.632Z,11.93
2023-03-01T03:09:29.425Z,11.10
2023-03-01T03:11:56.143Z,10.18
2023-03-01T03:14:22.855Z,12.90
2023-03-01T03:16:51.266Z,10.15
2023-03-01T03:19:20.191Z,10.73
2023-03-01T03:21:47.662Z,11.15
2023-03-01T03:24:14.833Z,12.23
2023-03-01T03:26:41.544Z,10.38
2023-03-01T03:29:08.475Z,11.25
2023-03-01T03:31:35.385Z,13.60
2023-03-01T03:34:02.179Z,10.98
2023-03-01T03:36:29.000Z,11.20
2023-03-01T03:38:55.864Z,13.07
2023-03-01T03:41:22.747Z,11.98
2023-03-01T03:43:49.933Z,16.42
2023-03-01T03:46:17.977Z,11.93
2023-03-01T03:48:46.571Z,10.82
2023-03-01T03:51:16.603Z,13.30
2023-03-01T03:53:44.888Z,14.82
2023-03-01T03:56:13.214Z,12.57
2023-03-01T03:58:40.034Z,12.57
2023-03-01T04:01:07.456Z,12.13
2023-03-01T04:03:35.933Z,15.15
2023-03-01T04:06:04.962Z,15.15
2023-03-01T04:08:31.985Z,12.98
2023-03-01T04:11:21.698Z,13.90
2023-03-01T04:13:49.256Z,13.07
2023-03-01T04:16:16.150Z,12.07
2023-03-01T04:18:42.921Z,14.77
2023-03-01T04:21:09.699Z,14.35
2023-03-01T04:23:36.943Z,13.07
2023-03-01T04:26:04.732Z,12.50
2023-03-01T04:28:36.798Z,14.95
2023-03-01T04:31:14.604Z,13.60
2023-03-01T04:33:45.995Z,15.27
2023-03-01T04:36:15.601Z,15.73
2023-03-01T04:38:42.904Z,15.68
2023-03-01T04:41:12.110Z,16.08
2023-03-01T04:43:39.173Z,15.93
2023-03-01T04:46:10.309Z,17.23
2023-03-01T04:48:39.592Z,16.92
2023-03-01T04:51:08.325Z,23.17
2023-03-01T04:53:39.362Z,22.08
2023-03-01T04:56:07.157Z,23.98
2023-03-01T04:58:34.073Z,21.13
2023-03-01T05:01:00.873Z,20.73
2023-03-01T05:03:28.037Z,25.08
2023-03-01T05:05:54.995Z,25.90
2023-03-01T05:08:21.809Z,26.08
2023-03-01T05:10:54.015Z,26.20
2023-03-01T05:13:22.176Z,23.73
2023-03-01T05:15:55.495Z,22.23
2023-03-01T05:18:27.022Z,22.63
2023-03-01T05:20:57.157Z,23.13
2023-03-01T05:23:24.180Z,21.10
2023-03-01T05:25:53.224Z,18.65
2023-03-01T05:28:21.402Z,19.08
2023-03-01T05:30:48.512Z,18.35
2023-03-01T05:33:15.349Z,17.90
2023-03-01T05:35:46.094Z,17.35
2023-03-01T05:38:14.311Z,16.17
2023-03-01T05:40:44.632Z,17.58
2023-03-01T05:43:13.120Z,16.60
2023-03-01T05:45:41.555Z,17.00
2023-03-01T05:48:11.158Z,17.10
2023-03-01T05:50:42.340Z,15.15
2023-03-01T05:53:14.797Z,15.63
2023-03-01T05:55:43.513Z,14.45
2023-03-01T05:58:18.184Z,13.32
2023-03-01T06:00:47.687Z,15.70
2023-03-01T06:03:17.719Z,16.08
2023-03-01T06:05:45.545Z,14.27
2023-03-01T06:08:13.588Z,13.57
2023-03-01T06:10:41.646Z,16.27
2023-03-01T06:13:08.419Z,14.60
2023-03-01T06:15:35.217Z,16.45
2023-03-01T06:18:01.960Z,13.82
2023-03-01T06:20:33.063Z,16.80
2023-03-01T06:23:00.973Z,14.70
2023-03-01T06:25:28.608Z,17.58
2023-03-01T06:27:56.657Z,18.00
2023-03-01T06:30:26.133Z,14.05
2023-03-01T06:32:53.871Z,17.10
2023-03-01T06:35:21.252Z,17.40
2023-03-01T06:37:49.438Z,15.20
2023-03-01T06:40:17.296Z,15.68
2023-03-01T06:42:50.148Z,19.30
2023-03-01T06:45:19.663Z,17.38
2023-03-01T06:47:46.982Z,17.98
2023-03-01T06:50:15.340Z,17.30
2023-03-01T06:52:42.364Z,16.75
2023-03-01T06:55:09.447Z,18.10
2023-03-01T06:57:36.222Z,17.70
2023-03-01T07:00:08.092Z,17.80
2023-03-01T07:02:34.892Z,20.23
2023-03-01T07:05:01.731Z,20.20
2023-03-01T07:07:28.467Z,18.10
2023-03-01T07:09:55.306Z,15.82
2023-03-01T07:12:22.088Z,18.52
2023-03-01T07:14:48.828Z,19.75
2023-03-01T07:17:15.538Z,17.52
2023-03-01T07:19:42.283Z,21.25
2023-03-01T07:22:10.245Z,21.77
2023-03-01T07:24:37.104Z,17.55
2023-03-01T07:27:04.128Z,18.60
2023-03-01T07:29:31.209Z,19.08
2023-03-01T07:31:58.083Z,18.88
2023-03-01T07:34:25.114Z,19.90
2023-03-01T07:36:51.891Z,19.13
2023-03-01T07:39:19.688Z,18.73
2023-03-01T07:41:46.852Z,18.67
2023-03-01T07:44:13.572Z,15.00
2023-03-01T07:46:40.299Z,16.83
2023-03-01T07:49:09.138Z,18.35
2023-03-01T07:51:35.857Z,15.88
2023-03-01T07:54:03.120Z,14.23
2023-03-01T07:56:30.283Z,13.45
2023-03-01T07:58:57.658Z,13.07
2023-03-01T08:01:24.738Z,12.15
2023-03-01T08:03:51.485Z,12.43
2023-03-01T08:06:19.458Z,11.35
2023-03-01T08:08:46.736Z,12.55
2023-03-01T08:11:15.893Z,13.82
2023-03-01T08:13:44.150Z,12.68
2023-03-01T08:16:16.434Z,10.75
2023-03-01T08:18:44.457Z,10.93
2023-03-01T08:21:18.068Z,10.70
2023-03-01T08:23:45.246Z,9.55
2023-03-01T08:26:17.087Z,11.13
2023-03-01T08:28:44.357Z,12.20
2023-03-01T08:31:34.205Z,10.43
2023-03-01T08:34:05.186Z,12.13
2023-03-01T08:36:38.884Z,10.95
2023-03-01T08:39:07.325Z,10.90
2023-03-01T08:41:34.294Z,10.35
2023-03-01T08:44:01.213Z,9.27
2023-03-01T08:46:31.238Z,10.73
2023-03-01T08:48:58.502Z,12.45
2023-03-01T08:51:26.973Z,10.05
2023-03-01T08:53:54.422Z,10.00
2023-03-01T08:56:21.387Z,11.02
2023-03-01T08:58:50.087Z,11.63
2023-03-01T09:01:19.950Z,10.65
2023-03-01T09:03:47.841Z,11.10
2023-03-01T09:06:15.551Z,11.07
2023-03-01T09:08:46.649Z,9.25
2023-03-01T09:11:17.715Z,10.38
2023-03-01T09:13:46.414Z,10.13
2023-03-01T09:16:19.046Z,10.15
2023-03-01T09:18:51.095Z,10.35
2023-03-01T09:21:25.032Z,9.45
2023-03-01T09:23:59.213Z,8.52
2023-03-01T09:26:26.316Z,7.85
2023-03-01T09:28:57.036Z,7.47
2023-03-01T09:31:25.918Z,9.48
2023-03-01T09:33:55.231Z,7.82
2023-03-01T09:36:26.511Z,8.27
2023-03-01T09:38:54.216Z,7.38
2023-03-01T09:41:50.392Z,7.25
2023-03-01T09:45:04.227Z,6.75
2023-03-01T09:47:37.196Z,7.10
2023-03-01T09:50:17.951Z,5.90
2023-03-01T09:53:14.096Z,5.18
2023-03-01T09:55:50.489Z,7.05
2023-03-01T09:58:46.271Z,6.03
2023-03-01T10:01:33.886Z,6.55
2023-03-01T10:04:48.181Z,4.38
2023-03-01T10:07:24.139Z,4.03
2023-03-01T10:09:50.997Z,4.88
2023-03-01T10:12:35.914Z,5.82
2023-03-01T10:15:15.334Z,5.10
2023-03-01T10:17:52.135Z,6.53
2023-03-01T10:20:22.764Z,4.88
2023-03-01T10:22:53.596Z,5.75
2023-03-01T10:25:54.050Z,6.05
2023-03-01T10:28:57.094Z,5.47
2023-03-01T10:31:30.383Z,5.20
2023-03-01T10:33:58.148Z,7.10
2023-03-01T10:36:25.292Z,7.85
2023-03-01T10:38:57.955Z,6.07
2023-03-01T10:41:27.771Z,4.90
2023-03-01T10:43:58.764Z,4.95
2023-03-01T10:46:38.288Z,6.57
2023-03-01T10:49:24.071Z,5.53
2023-03-01T10:51:53.749Z,4.90
2023-03-01T10:54:33.406Z,6.20
2023-03-01T10:57:04.063Z,5.75
2023-03-01T10:59:40.203Z,4.70
2023-03-01T11:02:30.131Z,5.05
2023-03-01T11:05:16.054Z,4.55
2023-03-01T11:07:59.480Z,4.70
2023-03-01T11:10:37.565Z,5.23
2023-03-01T11:13:22.231Z,3.63
2023-03-01T11:16:11.163Z,3.60
2023-03-01T11:18:47.746Z,4.65
2023-03-01T11:21:16.647Z,4.43
2023-03-01T11:23:47.526Z,2.92
2023-03-01T11:26:16.504Z,4.10
2023-03-01T11:28:47.741Z,3.15
2023-03-01T11:31:17.834Z,2.45
2023-03-01T11:34:11.139Z,2.95
2023-03-01T11:37:00.769Z,2.65
2023-03-01T11:39:50.303Z,3.83
2023-03-01T11:42:25.978Z,3.42
2023-03-01T11:44:59.197Z,4.15
2023-03-01T11:47:53.010Z,3.05
2023-03-01T11:50:46.867Z,3.13
2023-03-01T11:53:27.276Z,2.40
2023-03-01T11:56:05.490Z,2.72
2023-03-01T11:59:12.740Z,5.65
2023-03-01T12:02:18.316Z,3.25
2023-03-01T12:05:18.270Z,2.22
2023-03-01T12:08:15.780Z,2.08
2023-03-01T12:11:28.224Z,2.30
2023-03-01T12:14:25.414Z,2.00
2023-03-01T12:17:14.643Z,6.07
2023-03-01T12:20:23.958Z,5.78
2023-03-01T12:23:20.778Z,2.65
2023-03-01T12:26:29.866Z,2.53
2023-03-01T12:29:24.977Z,3.45
2023-03-01T12:32:17.633Z,2.45
2023-03-01T12:35:14.629Z,2.05
2023-03-01T12:37:59.782Z,2.47
2023-03-01T12:41:02.754Z,3.58
2023-03-01T12:44:04.221Z,3.35
2023-03-01T12:46:52.673Z,2.70
2023-03-01T12:49:38.927Z,2.53
2023-03-01T12:52:40.382Z,2.72
2023-03-01T12:55:20.302Z,2.80
2023-03-01T12:58:34.164Z,3.42
2023-03-01T13:01:52.998Z,2.63
2023-03-01T13:05:07.576Z,4.68
2023-03-01T13:08:06.530Z,2.17
2023-03-01T13:10:54.978Z,3.97
2023-03-01T13:13:28.856Z,2.80
2023-03-01T13:15:56.908Z,2.60
2023-03-01T13:18:24.281Z,2.50
2023-03-01T13:20:55.414Z,3.75
2023-03-01T13:23:22.418Z,2.83
2023-03-01T13:25:58.580Z,2.40
2023-03-01T13:28:46.034Z,3.47
2023-03-01T13:31:21.938Z,3.38
2023-03-01T13:33:52.760Z,3.53
2023-03-01T13:36:28.609Z,3.10
2023-03-01T13:39:00.743Z,3.20
2023-03-01T13:41:39.708Z,3.00
2023-03-01T13:44:39.686Z,3.60
2023-03-01T13:47:14.847Z,3.53
2023-03-01T13:49:52.810Z,3.30
2023-03-01T13:53:00.116Z,2.85
2023-03-01T13:55:46.465Z,3.00
2023-03-01T13:58:27.761Z,3.40
2023-03-01T14:01:21.150Z,2.67
2023-03-01T14:03:47.960Z,2.70
2023-03-01T14:06:27.032Z,3.85
2023-03-01T14:09:19.567Z,3.70
2023-03-01T14:12:05.696Z,2.65
2023-03-01T14:15:17.518Z,3.17
2023-03-01T14:18:14.932Z,2.95
2023-03-01T14:20:52.017Z,3.10
2023-03-01T14:23:23.073Z,4.03
2023-03-01T14:25:58.580Z,2.45
2023-03-01T14:28:29.895Z,4.00
2023-03-01T14:31:00.015Z,2.47
2023-03-01T14:33:38.159Z,4.47
2023-03-01T14:36:13.157Z,3.35
2023-03-01T14:38:47.768Z,2.67
2023-03-01T14:41:23.423Z,3.88
2023-03-01T14:44:02.080Z,2.85
2023-03-01T14:46:41.413Z,3.80
2023-03-01T14:49:18.055Z,3.13
2023-03-01T14:51:57.331Z,2.65
2023-03-01T14:54:41.734Z,2.45
2023-03-01T14:57:18.644Z,2.80
2023-03-01T14:59:46.423Z,2.58
2023-03-01T15:02:20.539Z,3.28
2023-03-01T15:04:59.244Z,3.65
2023-03-01T15:07:33.250Z,3.15
2023-03-01T15:12:30.306Z,2.72
2023-03-01T15:15:04.368Z,3.67
2023-03-01T15:17:39.568Z,2.85
2023-03-01T15:20:18.605Z,4.35
2023-03-01T15:22:49.660Z,4.45
2023-03-01T15:25:23.980Z,5.68
2023-03-01T15:27:53.653Z,2.88
2023-03-01T15:30:38.426Z,2.53
2023-03-01T15:33:31.026Z,2.80
2023-03-01T15:36:32.909Z,4.47
2023-03-01T15:39:02.606Z,2.72
2023-03-01T15:41:38.709Z,4.38
2023-03-01T15:44:42.682Z,4.78
2023-03-01T15:47:31.586Z,2.50
2023-03-01T15:50:00.954Z,3.72
2023-03-01T15:52:43.528Z,2.65
2023-03-01T15:55:24.016Z,2.20
2023-03-01T15:58:00.034Z,4.38
2023-03-01T16:00:27.424Z,3.30
2023-03-01T16:02:54.196Z,3.80
2023-03-01T16:05:31.983Z,2.97
2023-03-01T16:07:59.422Z,4.50
2023-03-01T16:10:26.664Z,3.58
2023-03-01T16:12:53.701Z,3.40
2023-03-01T16:15:23.678Z,3.38
2023-03-01T16:17:50.677Z,3.05
2023-03-01T16:20:28.038Z,3.35
2023-03-01T16:22:56.099Z,4.85
2023-03-01T16:25:22.888Z,4.80
2023-03-01T16:27:51.753Z,4.38
2023-03-01T16:30:22.974Z,4.38
2023-03-01T16:32:51.103Z,4.63
2023-03-01T16:35:21.530Z,4.57
2023-03-01T16:37:49.513Z,4.88
2023-03-01T16:40:29.166Z,4.35
2023-03-01T16:43:00.437Z,4.70
2023-03-01T16:45:33.367Z,4.28
2023-03-01T16:48:00.135Z,4.22
2023-03-01T16:50:26.951Z,3.30
2023-03-01T16:52:53.707Z,3.10
2023-03-01T16:55:20.465Z,3.25
2023-03-01T16:57:47.316Z,2.63
2023-03-01T17:00:14.901Z,2.83
2023-03-01T17:02:42.676Z,3.53
2023-03-01T17:05:12.747Z,3.85
2023-03-01T17:07:40.353Z,4.60
2023-03-01T17:10:12.014Z,3.92
2023-03-01T17:12:39.528Z,3.33
2023-03-01T17:15:07.675Z,3.85
2023-03-01T17:17:35.614Z,5.25
2023-03-01T17:20:04.858Z,4.30
2023-03-01T17:22:31.779Z,4.40
2023-03-01T17:24:58.644Z,3.92
2023-03-01T17:27:25.646Z,6.45
2023-03-01T17:29:52.572Z,6.78
2023-03-01T17:32:19.481Z,5.38
2023-03-01T17:34:46.687Z,6.18
2023-03-01T17:37:13.459Z,7.47
2023-03-01T17:39:40.216Z,6.28
2023-03-01T17:42:07.467Z,11.75
2023-03-01T17:44:34.897Z,6.97
2023-03-01T17:47:03.961Z,6.85
2023-03-01T17:49:31.516Z,5.68
2023-03-01T17:51:59.058Z,8.77
2023-03-01T17:54:26.364Z,11.25
2023-03-01T17:56:55.782Z,5.93
2023-03-01T17:59:22.724Z,7.10
2023-03-01T18:01:49.779Z,6.80
2023-03-01T18:04:18.430Z,5.60
2023-03-01T18:06:45.285Z,6.82
2023-03-01T18:09:12.060Z,6.53
2023-03-01T18:11:39.536Z,7.68
2023-03-01T18:14:06.309Z,7.88
2023-03-01T18:16:34.254Z,5.28
2023-03-01T18:19:02.375Z,6.35
2023-03-01T18:21:34.365Z,7.32
2023-03-01T18:24:01.607Z,6.20
2023-03-01T18:26:29.784Z,8.32
2023-03-01T18:28:58.374Z,9.82
2023-03-01T18:31:25.868Z,8.65
2023-03-01T18:33:55.255Z,8.90
2023-03-01T18:36:35.654Z,7.32
2023-03-01T18:39:06.449Z,9.10
2023-03-01T18:41:34.478Z,8.85
2023-03-01T18:44:03.678Z,9.13
2023-03-01T18:46:31.458Z,12.57
2023-03-01T18:48:59.104Z,11.23
2023-03-01T18:51:28.342Z,10.90
2023-03-01T18:53:58.564Z,11.75
2023-03-01T18:56:26.603Z,10.52
2023-03-01T18:58:53.368Z,11.02
2023-03-01T19:01:25.458Z,12.00
2023-03-01T19:03:54.779Z,12.95
2023-03-01T19:06:22.181Z,14.30
2023-03-01T19:08:50.093Z,11.60
2023-03-01T19:11:17.706Z,10.55
2023-03-01T19:13:47.242Z,10.48
2023-03-01T19:16:18.012Z,9.32
2023-03-01T19:18:50.379Z,12.63
2023-03-01T19:21:25.135Z,11.13
2023-03-01T19:23:52.816Z,10.43
2023-03-01T19:26:23.684Z,11.07
2023-03-01T19:28:51.253Z,11.88
2023-03-01T19:31:24.189Z,13.93
2023-03-01T19:33:52.907Z,11.85
2023-03-01T19:36:21.817Z,11.63
2023-03-01T19:38:49.044Z,12.45
2023-03-01T19:41:18.143Z,12.98
2023-03-01T19:43:47.156Z,11.18
2023-03-01T19:46:16.353Z,10.80
2023-03-01T19:48:44.707Z,11.00
2023-03-01T19:51:12.413Z,11.90
2023-03-01T19:53:40.982Z,13.57
2023-03-01T19:56:08.840Z,12.80
2023-03-01T19:58:36.358Z,11.43
2023-03-01T20:01:03.197Z,13.13
2023-03-01T20:03:36.356Z,12.23
2023-03-01T20:06:15.872Z,11.07
2023-03-01T20:08:44.569Z,11.65
2023-03-01T20:11:13.852Z,10.65
2023-03-01T20:13:41.025Z,10.68
2023-03-01T20:16:09.181Z,10.25
2023-03-01T20:18:36.644Z,11.07
2023-03-01T20:21:07.163Z,11.73
2023-03-01T20:23:36.349Z,14.90
2023-03-01T20:26:15.006Z,12.07
2023-03-01T20:28:43.057Z,11.15
2023-03-01T20:31:13.141Z,15.15
2023-03-01T20:33:40.768Z,12.75
2023-03-01T20:36:10.553Z,11.43
2023-03-01T20:38:38.262Z,14.60
2023-03-01T20:41:11.601Z,14.00
2023-03-01T20:43:38.946Z,13.40
2023-03-01T20:46:13.545Z,12.35
2023-03-01T20:48:45.035Z,17.50
2023-03-01T20:51:13.732Z,13.40
2023-03-01T20:53:40.848Z,12.20
2023-03-01T20:56:14.965Z,12.00
2023-03-01T20:58:43.103Z,14.60
2023-03-01T21:01:15.360Z,12.20
2023-03-01T21:03:42.766Z,12.35
2023-03-01T21:06:09.632Z,14.27
2023-03-01T21:08:37.967Z,15.02
2023-03-01T21:11:07.351Z,14.73
2023-03-01T21:13:36.099Z,14.13
2023-03-01T21:16:13.214Z,13.05
2023-03-01T21:18:40.808Z,14.43
2023-03-01T21:21:14.567Z,13.30
2023-03-01T21:23:43.731Z,13.35
2023-03-01T21:26:20.797Z,12.75
2023-03-01T21:28:50.173Z,11.40
2023-03-01T21:31:23.771Z,12.30
2023-03-01T21:33:54.170Z,13.70
2023-03-01T21:36:23.237Z,14.13
2023-03-01T21:38:51.937Z,13.00
2023-03-01T21:41:23.757Z,13.48
2023-03-01T21:43:53.051Z,12.70
2023-03-01T21:46:23.731Z,11.10
2023-03-01T21:48:52.732Z,15.75
2023-03-01T21:51:22.451Z,11.57
2023-03-01T21:53:50.640Z,13.60
2023-03-01T21:56:27.676Z,14.30
2023-03-01T21:58:55.554Z,14.25
2023-03-01T22:01:26.172Z,12.25
2023-03-01T22:03:54.730Z,12.07
2023-03-01T22:06:38.075Z,14.40
2023-03-01T22:09:15.417Z,10.50
2023-03-01T22:11:55.509Z,14.40
2023-03-01T22:14:22.372Z,12.40
2023-03-01T22:16:51.424Z,16.45
2023-03-01T22:19:18.888Z,13.27
2023-03-01T22:21:49.816Z,15.15
2023-03-01T22:24:22.134Z,13.48
2023-03-01T22:26:52.033Z,13.27
2023-03-01T22:29:29.106Z,14.07
2023-03-01T22:31:57.385Z,11.82
2023-03-01T22:34:24.814Z,11.73
2023-03-01T22:36:52.316Z,12.70
2023-03-01T22:39:21.054Z,14.95
2023-03-01T22:41:50.109Z,13.95
2023-03-01T22:44:21.541Z,10.48
2023-03-01T22:46:48.436Z,12.07
2023-03-01T22:49:17.054Z,15.32
2023-03-01T22:51:47.544Z,13.05
2023-03-01T22:54:15.628Z,12.60
2023-03-01T22:56:43.178Z,14.93
2023-03-01T22:59:14.257Z,13.93
2023-03-01T23:01:46.496Z,15.10
2023-03-01T23:04:15.012Z,13.68
2023-03-01T23:06:51.904Z,13.15
2023-03-01T23:09:22.427Z,13.15
2023-03-01T23:11:51.295Z,12.95
2023-03-01T23:14:19.412Z,13.77
2023-03-01T23:16:46.263Z,14.95
2023-03-01T23:19:13.214Z,14.30
2023-03-01T23:21:44.262Z,14.52
2023-03-01T23:24:11.491Z,14.57
2023-03-01T23:26:40.328Z,14.65
2023-03-01T23:29:08.303Z,14.82
2023-03-01T23:31:35.866Z,14.18
2023-03-01T23:34:02.970Z,12.05
2023-03-01T23:36:34.038Z,13.73
2023-03-01T23:39:05.539Z,14.27
2023-03-01T23:41:35.031Z,12.65
2023-03-01T23:44:04.154Z,12.73
2023-03-01T23:46:35.445Z,12.15
2023-03-01T23:49:03.038Z,13.32
2023-03-01T23:51:29.765Z,19.40
2023-03-01T23:54:00.939Z,12.82
2023-03-01T23:56:33.450Z,13.57
2023-03-01T23:59:04.018Z,13.20
